Weather observations for the past three days for
Montgomery, Dannelly Field
Imperial (Metric)
Date Time (cdt) Wind (mph) Vis. (mi.) Weather Sky Cond. Temperature (ºF) Relative Humidity Wind Chill (°F) Heat Index (°F) Pressure Precipitation (in)
Air Dwpt 6 hour altimeter (in) sea level (mb) 1 hr 3 hr 6 hr
Max. Min.
05 15:53 SW 12 10.00 A Few Clouds FEW055 81 55.9 42% 81 29.91 1012.7
05 14:53 S 9 10.00 Fair CLR 81 55.9 42% 81 29.93 1013.2
05 13:53 Vrbl 7 10.00 Fair CLR 79 53.1 41% 79 29.95 1014.1
05 12:53 SE 7 10.00 Fair CLR 77 53.1 77 55 43% 78 29.98 1015.0
05 11:53 Vrbl 3 10.00 Fair CLR 73.9 53.1 48% 29.99 1015.2
05 10:53 SE 6 10.00 Fair CLR 72 53.1 52% 30.01 1016.2
05 09:53 S 9 10.00 Fair CLR 71.1 54 55% 30.02 1016.2
05 08:53 S 7 10.00 Fair CLR 68 53.1 59% 30.01 1016.0
05 07:53 SE 5 10.00 Fair CLR 62.1 53.1 73% 29.99 1015.3
05 06:53 Calm 10.00 Fair CLR 55 51.1 59 48.9 87% 29.97 1014.7
05 05:53 S 3 10.00 Fair CLR 48.9 46.9 93% 29.95 1014.0
05 04:53 E 3 10.00 Fair CLR 52 48.9 89% 29.96 1014.2
05 03:53 Calm 10.00 Fair CLR 50 48 93% 29.96 1014.5
05 02:53 Calm 10.00 Fair CLR 55.9 48.9 77% 29.96 1014.4
05 01:53 S 5 10.00 Fair CLR 57 48.9 74% 29.96 1014.4
05 00:53 S 6 10.00 Fair CLR 59 48.9 73.9 59 69% 29.98 1014.9
04 23:53 S 6 10.00 Fair CLR 62.1 48.9 62% 29.97 1014.7
04 22:53 SW 6 10.00 Fair CLR 63 48.9 60% 29.97 1014.7
04 21:53 S 6 10.00 Fair CLR 64.9 46 51% 29.96 1014.2
04 20:53 S 6 10.00 Fair CLR 66.9 46 47% 29.95 1013.9
04 19:53 S 6 10.00 Fair CLR 70 46.9 44% 29.94 1013.6
04 18:53 SE 5 10.00 Fair CLR 73.9 46.9 80.1 73.9 38% 29.94 1013.5
04 17:53 S 7 10.00 Fair CLR 79 43 28% 78 29.95 1013.8
04 16:53 SW 8 10.00 Fair CLR 80.1 44.1 28% 79 29.95 1013.9
04 15:53 S 3 G 17 10.00 Fair CLR 79 45 30% 79 29.96 1014.2
04 14:53 S 9 G 17 10.00 Fair CLR 80.1 45 29% 79 29.98 1014.9
04 13:53 Vrbl 6 10.00 Fair CLR 79 45 30% 79 30.01 1015.9
04 12:53 Calm 10.00 Fair CLR 75.9 44.1 77 50 32% 77 30.02 1016.5
04 11:53 S 6 10.00 Fair CLR 75 46 36% 77 30.05 1017.2
04 10:53 Vrbl 6 10.00 Fair CLR 73.9 48.9 41% 30.07 1017.9
04 09:53 Vrbl 7 0.00 Fair CLR 69.1 48.9 49% 30.07 1018.2
04 08:53 Calm 10.00 Fair CLR 62.1 48.9 62% 30.08 1018.6
04 07:53 Calm 10.00 Fair CLR 54 48.9 83% 30.08 1018.4
04 06:53 Calm 10.00 Fair CLR 50 46.9 52 46 89% 30.07 1018.1
04 05:53 Calm 10.00 Fair CLR 46 44.1 93% 30.06 1017.6
04 04:53 Calm 10.00 Fair CLR 46 45 96% 30.06 1017.8
04 03:53 Calm 10.00 Fair CLR 48 46 93% 30.06 1017.7
04 02:53 Calm 10.00 Fair CLR 48.9 46 90% 30.06 1017.9
04 01:53 Calm 10.00 Fair CLR 46.9 45 93% 30.07 1018.2
04 00:53 Calm 10.00 Fair CLR 48.9 46 70 48.9 90% 30.09 1018.6
03 23:53 Calm 10.00 Fair CLR 50 46.9 89% 30.09 1018.9
03 22:53 SW 5 10.00 Fair CLR 51.1 48 89% 30.1 1019.1
03 21:53 SW 5 10.00 Fair CLR 52 48 86% 30.1 1019.1
03 20:53 SW 5 10.00 Fair CLR 54 48 80% 30.08 1018.4
03 19:53 NW 3 10.00 Fair CLR 64 42.1 45% 30.07 1018.0
03 18:53 NW 5 10.00 Fair CLR 70 39.9 73.9 70 34% 30.05 1017.5
03 17:53 NW 8 10.00 Fair CLR 72 37.9 29% 30.06 1017.6
03 16:53 NW 8 10.00 Fair CLR 73.9 37.9 27% 30.07 1017.9
03 15:53 NW 10 10.00 Fair CLR 73.9 39.9 29% 30.08 1018.3
03 14:53 Calm 10.00 Fair CLR 72 39 30% 30.11 1019.4
03 13:53 W 6 10.00 Fair CLR 72 37.9 29% 30.13 1020.0
03 12:53 W 13 G 18 10.00 Fair CLR 71.1 39 72 46 31% 30.15 1020.7
03 11:53 NW 7 10.00 Fair CLR 69.1 39 33% 30.19 1022.0
03 10:53 Calm 10.00 Fair CLR 66.9 37.9 35% 30.19 1022.3
03 09:53 N 8 10.00 Fair CLR 64.9 37 36% 30.19 1022.3
03 08:53 Calm 10.00 Fair CLR 59 46 62% 30.18 1022.1
03 07:53 E 3 10.00 Fair CLR 54 46 75% 30.17 1021.5
03 06:53 Calm 10.00 Fair CLR 46 45 48 43 96% 30.16 1021.3
03 05:53 Calm 10.00 Fair CLR 45 44.1 97% 30.13 1020.3
03 04:53 Calm 10.00 Fair CLR 46 45 96% 30.12 1019.7
03 03:53 Calm 10.00 Fair CLR 45 44.1 97% 30.12 1019.8
03 02:53 Calm 10.00 Fair CLR 44.1 43 96% 30.1 1019.2
03 01:53 Calm 10.00 Fair CLR 46 44.1 93% 30.07 1018.3
03 00:53 Calm 10.00 Fair CLR 46.9 45 66.9 46 93% 30.08 1018.5
02 23:53 Calm 10.00 Fair CLR 48 46 93% 30.07 1018.3
02 22:53 Calm 10.00 Fair CLR 50 44.1 80% 30.06 1017.9
02 21:53 SW 3 10.00 Fair CLR 51.1 46 83% 30.06 1017.8
02 20:53 Calm 10.00 Fair CLR 55.9 42.1 60% 30.04 1017.1
02 19:53 N 5 10.00 Fair CLR 63 37.9 40% 30.01 1016.1
02 18:53 N 9 10.00 Fair CLR 66.9 37 72 66.9 33% 29.99 1015.2
02 17:53 NW 14 10.00 Fair CLR 70 37 30% 29.97 1014.5
02 16:53 N 16 G 24 10.00 Fair CLR 71.1 37.9 30% 29.96 1014.2
Date Time (cdt) Wind (mph) Vis. (mi.) Weather Sky Cond. Air Dwpt Max. Min. Relative Humidity Wind Chill (°F) Heat Index (°F) altimeter (in) sea level (mb) 1 hr 3 hr 6 hr
6 hour
Temperature (ºF) Pressure Precipitation (in)